Time;durP1;ratioP1;P1;durP2;ratioP2;P2;SDS_P1;SDS_P2;PMS_P1;PMS_P2;Temp;Humidity;BMP_temperature;BMP_pressure;BME280_temperature;BME280_humidity;BME280_pressure;Samples;Min_cycle;Max_cycle;Signal;HPM_P1;HPM_P2
2021/12/16 00:01:48;;;;;;;5.78;5.00;;;20.10;99.90;;;;;;4222021;28;20206;-82
2021/12/16 00:08:58;;;;;;;5.60;4.60;;;20.00;99.90;;;;;;4168534;28;20941;-82
2021/12/16 00:11:10;;;;;;;6.07;5.35;;;20.00;99.90;;;;;;4198616;28;20213;-82
2021/12/16 00:31:59;;;;;;;7.05;5.38;;;19.90;99.90;;;;;;4186804;28;20266;-82
2021/12/16 00:34:03;;;;;;;6.32;5.72;;;20.00;99.90;;;;;;4198555;28;20215;-83
2021/12/16 00:36:10;;;;;;;5.53;4.97;;;19.90;99.90;;;;;;4198626;28;20223;-82
2021/12/16 00:38:13;;;;;;;6.82;5.63;;;19.90;99.90;;;;;;4193389;28;20679;-82
2021/12/16 00:40:15;;;;;;;5.38;4.72;;;19.90;99.90;;;;;;4197651;28;20695;-82
2021/12/16 00:42:31;;;;;;;8.35;5.85;;;19.90;99.90;;;;;;4198423;28;20207;-82
2021/12/16 00:47:13;;;;;;;5.10;4.60;;;19.90;99.90;;;;;;4197755;28;20195;-82
2021/12/16 00:49:35;;;;;;;6.30;5.10;;;19.90;99.90;;;;;;4198509;28;20199;-82
2021/12/16 00:54:10;;;;;;;5.35;4.85;;;19.90;99.90;;;;;;4197654;28;20191;-82
2021/12/16 00:56:15;;;;;;;5.43;4.93;;;19.90;99.90;;;;;;4207348;28;20650;-82
2021/12/16 00:58:22;;;;;;;5.50;5.00;;;19.90;99.90;;;;;;4212977;28;20211;-82
2021/12/16 01:00:28;;;;;;;5.75;4.88;;;19.90;99.90;;;;;;4213496;28;20210;-83
2021/12/16 01:02:52;;;;;;;7.00;5.28;;;19.90;99.90;;;;;;4213762;28;20210;-82
2021/12/16 01:05:19;;;;;;;5.63;4.85;;;19.90;99.90;;;;;;4213508;28;20218;-82
2021/12/16 01:35:48;;;;;;;5.75;5.15;;;19.80;99.90;;;;;;4151283;28;20727;-82
2021/12/16 01:38:23;;;;;;;5.75;5.10;;;19.80;99.90;;;;;;4193758;28;20270;-83
2021/12/16 01:40:51;;;;;;;5.35;4.85;;;19.80;99.90;;;;;;4224548;28;20550;-82
2021/12/16 01:47:52;;;;;;;5.30;4.80;;;19.80;99.90;;;;;;4222903;28;20183;-82
2021/12/16 01:50:01;;;;;;;5.75;5.13;;;19.80;99.90;;;;;;4225735;28;20202;-82
2021/12/16 01:52:25;;;;;;;5.28;4.78;;;19.80;99.90;;;;;;4217431;28;20303;-82
2021/12/16 01:54:46;;;;;;;5.25;4.65;;;19.70;99.90;;;;;;4227728;28;20209;-82
2021/12/16 01:56:57;;;;;;;5.07;4.65;;;19.70;99.90;;;;;;4228470;28;20217;-82
2021/12/16 01:59:03;;;;;;;4.95;4.45;;;19.70;99.90;;;;;;4229143;28;20217;-82
2021/12/16 02:01:14;;;;;;;5.97;4.93;;;19.70;99.90;;;;;;4217364;28;20214;-82
2021/12/16 02:03:24;;;;;;;6.18;4.97;;;19.70;99.90;;;;;;4227960;28;20260;-82
2021/12/16 02:05:39;;;;;;;5.57;5.05;;;19.70;99.90;;;;;;4220756;28;20278;-81
2021/12/16 02:10:04;;;;;;;6.30;5.07;;;19.70;99.90;;;;;;4217901;28;20272;-82
2021/12/16 02:12:19;;;;;;;5.13;4.63;;;19.70;99.90;;;;;;4216620;28;20210;-82
2021/12/16 02:28:37;;;;;;;5.68;5.07;;;19.70;99.90;;;;;;4217947;28;20600;-81
2021/12/16 02:35:33;;;;;;;5.80;5.07;;;19.70;99.90;;;;;;4201774;28;20223;-82
2021/12/16 02:37:44;;;;;;;6.05;4.93;;;19.70;99.90;;;;;;4224889;28;20256;-81
2021/12/16 02:39:47;;;;;;;6.35;4.93;;;19.70;99.90;;;;;;4222760;28;20266;-82
2021/12/16 02:41:52;;;;;;;5.20;4.68;;;19.60;99.90;;;;;;4222718;28;20222;-81
2021/12/16 02:48:34;;;;;;;5.68;5.15;;;19.60;99.90;;;;;;4215401;28;20198;-82
2021/12/16 02:50:36;;;;;;;5.70;5.03;;;19.70;99.90;;;;;;4224224;28;20676;-81
2021/12/16 02:52:40;;;;;;;5.53;5.03;;;19.60;99.90;;;;;;4215888;28;20218;-82
2021/12/16 02:54:43;;;;;;;5.90;5.30;;;19.60;99.90;;;;;;4231118;28;20278;-82
2021/12/16 02:56:46;;;;;;;5.03;4.60;;;19.60;99.90;;;;;;4230653;28;20350;-81
2021/12/16 02:58:52;;;;;;;4.90;4.40;;;19.60;99.90;;;;;;4231092;28;20544;-81
2021/12/16 03:01:01;;;;;;;5.50;4.57;;;19.60;99.90;;;;;;4230582;28;20210;-82
2021/12/16 03:03:04;;;;;;;5.38;4.70;;;19.60;99.90;;;;;;4230774;28;20221;-81
2021/12/16 03:05:08;;;;;;;6.97;4.72;;;19.60;99.90;;;;;;4223430;28;20215;-81
2021/12/16 03:07:13;;;;;;;5.65;5.00;;;19.60;99.90;;;;;;4207036;28;20346;-81
2021/12/16 03:09:29;;;;;;;5.10;4.60;;;19.60;99.90;;;;;;4217880;28;20206;-82
2021/12/16 03:11:41;;;;;;;5.18;4.65;;;19.60;99.90;;;;;;4219293;28;20206;-81
2021/12/16 03:13:57;;;;;;;5.47;4.68;;;19.60;99.90;;;;;;4226101;28;20286;-82
2021/12/16 03:16:11;;;;;;;5.32;4.80;;;19.60;99.90;;;;;;4221541;28;20587;-82
2021/12/16 03:18:23;;;;;;;5.13;4.63;;;19.60;99.90;;;;;;4217491;28;20241;-81
2021/12/16 03:20:37;;;;;;;7.78;5.40;;;19.60;99.90;;;;;;4217198;28;20275;-81
2021/12/16 03:22:53;;;;;;;5.50;5.00;;;19.60;99.90;;;;;;4228701;28;20210;-81
2021/12/16 03:25:12;;;;;;;5.78;5.00;;;19.60;99.90;;;;;;4220627;28;20219;-81
2021/12/16 03:27:40;;;;;;;4.90;4.40;;;19.60;99.90;;;;;;4215837;28;20256;-81
2021/12/16 03:30:13;;;;;;;5.68;4.75;;;19.60;99.90;;;;;;4220620;28;20206;-81
2021/12/16 03:32:34;;;;;;;5.57;4.65;;;19.50;99.90;;;;;;4196043;28;20223;-82
2021/12/16 03:34:44;;;;;;;5.13;4.63;;;19.60;99.90;;;;;;4197696;28;20243;-81
2021/12/16 03:37:18;;;;;;;5.18;4.63;;;19.50;99.90;;;;;;4197768;28;20261;-81
2021/12/16 03:39:20;;;;;;;5.15;4.68;;;19.50;99.90;;;;;;4196902;28;20219;-82
2021/12/16 03:41:25;;;;;;;5.18;4.68;;;19.60;99.90;;;;;;4198002;28;20211;-82
2021/12/16 03:43:29;;;;;;;5.20;4.70;;;19.50;99.90;;;;;;4195118;28;20656;-81
2021/12/16 03:47:55;;;;;;;5.00;4.50;;;19.50;99.90;;;;;;4197888;28;20643;-82
2021/12/16 03:49:58;;;;;;;5.53;4.90;;;19.50;99.90;;;;;;4197783;28;20257;-81
2021/12/16 03:52:06;;;;;;;5.13;4.63;;;19.50;99.90;;;;;;4197321;28;20207;-82
2021/12/16 03:54:13;;;;;;;5.38;4.70;;;19.50;99.90;;;;;;4197242;28;20760;-82
2021/12/16 03:56:16;;;;;;;5.28;4.78;;;19.50;99.90;;;;;;4197376;28;20219;-82
2021/12/16 03:58:19;;;;;;;5.68;4.60;;;19.50;99.90;;;;;;4200714;28;20219;-82
2021/12/16 04:00:25;;;;;;;5.32;4.78;;;19.50;99.90;;;;;;4200317;28;20253;-81
2021/12/16 04:02:30;;;;;;;6.00;5.30;;;19.50;99.90;;;;;;4192001;28;20211;-81
2021/12/16 04:04:34;;;;;;;4.72;4.22;;;19.50;99.90;;;;;;4196145;28;20211;-81
2021/12/16 04:06:38;;;;;;;5.20;4.70;;;19.50;99.90;;;;;;4195479;28;20679;-82
2021/12/16 04:08:40;;;;;;;5.20;4.70;;;19.50;99.90;;;;;;4197944;28;20273;-82
2021/12/16 04:10:49;;;;;;;5.00;4.57;;;19.50;99.90;;;;;;4197231;28;20207;-81
2021/12/16 04:12:52;;;;;;;5.07;4.60;;;19.50;99.90;;;;;;4194587;28;20203;-81
2021/12/16 04:14:58;;;;;;;5.00;4.60;;;19.50;99.90;;;;;;4199335;28;20698;-81
2021/12/16 04:17:03;;;;;;;5.65;4.53;;;19.50;99.90;;;;;;4196816;28;20207;-81
2021/12/16 04:19:11;;;;;;;4.90;4.40;;;19.50;99.90;;;;;;4196779;28;20242;-81
2021/12/16 04:21:15;;;;;;;4.97;4.47;;;19.50;99.90;;;;;;4190688;28;20214;-81
2021/12/16 04:23:18;;;;;;;4.93;4.53;;;19.50;99.90;;;;;;4194615;28;20249;-82
2021/12/16 04:25:30;;;;;;;5.18;4.68;;;19.50;99.90;;;;;;4207879;28;20211;-81
2021/12/16 04:27:34;;;;;;;4.97;4.20;;;19.40;99.90;;;;;;4197053;28;20203;-82
2021/12/16 04:29:38;;;;;;;5.70;4.93;;;19.50;99.90;;;;;;4197111;28;20656;-82
2021/12/16 04:31:43;;;;;;;5.03;4.53;;;19.50;99.90;;;;;;4212067;28;20758;-82
2021/12/16 04:33:47;;;;;;;5.95;4.70;;;19.40;99.90;;;;;;4213243;28;20234;-82
2021/12/16 04:35:49;;;;;;;5.18;4.68;;;19.40;99.90;;;;;;4211291;28;20210;-82
2021/12/16 04:37:52;;;;;;;5.45;4.95;;;19.40;99.90;;;;;;4213543;28;20716;-82
2021/12/16 04:39:55;;;;;;;4.70;4.15;;;19.40;99.90;;;;;;4208560;28;20214;-82
2021/12/16 04:41:58;;;;;;;5.05;4.55;;;19.40;99.90;;;;;;4209442;28;20687;-82
2021/12/16 04:44:02;;;;;;;5.18;4.70;;;19.40;99.90;;;;;;4213600;28;20551;-82
2021/12/16 04:46:05;;;;;;;5.15;4.65;;;19.40;99.90;;;;;;4213494;28;20222;-82
2021/12/16 04:48:09;;;;;;;5.63;4.80;;;19.40;99.90;;;;;;4213182;28;20260;-81
2021/12/16 04:50:13;;;;;;;5.20;4.72;;;19.40;99.90;;;;;;4213450;28;20207;-82
2021/12/16 04:52:18;;;;;;;5.10;4.60;;;19.40;99.90;;;;;;4213230;28;20214;-82
2021/12/16 04:54:23;;;;;;;5.15;4.65;;;19.40;99.90;;;;;;4230147;28;20229;-82
2021/12/16 04:56:26;;;;;;;5.45;4.78;;;19.40;99.90;;;;;;4229789;28;20595;-82
2021/12/16 04:58:29;;;;;;;4.97;4.35;;;19.40;99.90;;;;;;4225854;28;20924;-82
2021/12/16 05:00:32;;;;;;;5.20;4.40;;;19.30;99.90;;;;;;4227059;28;20258;-82
2021/12/16 05:02:34;;;;;;;4.72;4.22;;;19.40;99.90;;;;;;4230209;28;20255;-82
2021/12/16 05:04:38;;;;;;;5.70;4.80;;;19.40;99.90;;;;;;4230026;28;20686;-82
2021/12/16 05:06:41;;;;;;;5.28;4.63;;;19.30;99.90;;;;;;4227387;28;20213;-82
2021/12/16 05:08:43;;;;;;;5.15;4.75;;;19.40;99.90;;;;;;4230018;28;20723;-82
2021/12/16 05:10:48;;;;;;;4.60;4.20;;;19.40;99.90;;;;;;4230103;28;20214;-82
2021/12/16 05:12:56;;;;;;;5.28;4.78;;;19.40;99.90;;;;;;4227612;28;20271;-82
2021/12/16 05:14:58;;;;;;;4.93;4.50;;;19.30;99.90;;;;;;4229867;28;20241;-82
2021/12/16 05:17:05;;;;;;;5.22;4.72;;;19.30;99.90;;;;;;4229709;28;20967;-82
2021/12/16 05:19:07;;;;;;;5.03;4.30;;;19.30;99.90;;;;;;4226289;28;20214;-82
2021/12/16 05:21:37;;;;;;;5.03;4.60;;;19.30;99.90;;;;;;4230076;28;20235;-82
2021/12/16 05:26:15;;;;;;;4.70;4.30;;;19.30;99.90;;;;;;4230049;28;20186;-82
2021/12/16 05:28:20;;;;;;;5.38;4.70;;;19.30;99.90;;;;;;4229775;28;20213;-82
2021/12/16 05:30:22;;;;;;;5.10;4.55;;;19.30;99.90;;;;;;4229571;28;20229;-82
2021/12/16 05:32:24;;;;;;;4.88;4.38;;;19.30;99.90;;;;;;4229677;28;21046;-82
2021/12/16 05:34:27;;;;;;;5.05;4.55;;;19.30;99.90;;;;;;4227726;28;20282;-82
2021/12/16 05:36:31;;;;;;;5.13;4.63;;;19.30;99.90;;;;;;4225778;28;20271;-82
2021/12/16 05:38:33;;;;;;;4.72;4.18;;;19.30;99.90;;;;;;4229806;28;20263;-82
2021/12/16 05:40:36;;;;;;;5.57;5.00;;;19.30;99.90;;;;;;4229565;28;20217;-82
2021/12/16 05:42:38;;;;;;;5.20;4.60;;;19.30;99.90;;;;;;4229637;28;20210;-82
2021/12/16 05:44:42;;;;;;;5.32;4.68;;;19.30;99.90;;;;;;4229777;28;20641;-82
2021/12/16 05:46:45;;;;;;;5.03;4.50;;;19.30;99.90;;;;;;4229353;28;20754;-82
2021/12/16 05:48:49;;;;;;;5.20;4.25;;;19.30;99.90;;;;;;4229584;28;20270;-82
2021/12/16 05:50:55;;;;;;;6.13;4.78;;;19.30;99.90;;;;;;4229673;28;20244;-82
2021/12/16 05:53:00;;;;;;;4.85;4.38;;;19.30;99.90;;;;;;4228039;28;20217;-81
2021/12/16 05:55:02;;;;;;;4.85;4.43;;;19.30;99.90;;;;;;4226090;28;20237;-82
2021/12/16 05:57:05;;;;;;;4.97;4.47;;;19.30;99.90;;;;;;4224880;28;20826;-82
2021/12/16 05:59:11;;;;;;;6.53;4.90;;;19.20;99.90;;;;;;4225716;28;20599;-82
2021/12/16 06:01:17;;;;;;;5.70;4.55;;;19.30;99.90;;;;;;4225494;28;20213;-82
2021/12/16 06:03:21;;;;;;;5.03;4.53;;;19.20;99.90;;;;;;4227404;28;20265;-82
2021/12/16 06:05:23;;;;;;;5.32;4.63;;;19.30;99.90;;;;;;4225344;28;20547;-82
2021/12/16 06:07:25;;;;;;;4.40;4.00;;;19.30;99.90;;;;;;4226690;28;20205;-82
2021/12/16 06:09:29;;;;;;;4.70;4.28;;;19.30;99.90;;;;;;4225034;28;20265;-82
2021/12/16 06:11:32;;;;;;;4.43;4.03;;;19.30;99.90;;;;;;4227558;28;20221;-82
2021/12/16 06:13:40;;;;;;;4.80;4.00;;;19.30;99.90;;;;;;4223020;28;20217;-81
2021/12/16 06:15:58;;;;;;;4.97;4.47;;;19.30;99.90;;;;;;4225553;28;20217;-82
2021/12/16 06:23:10;;;;;;;4.50;4.10;;;19.40;99.90;;;;;;4223758;28;20654;-83
2021/12/16 06:27:33;;;;;;;4.25;3.95;;;19.40;99.90;;;;;;4224864;28;20194;-82
2021/12/16 06:29:38;;;;;;;4.70;4.30;;;19.40;99.90;;;;;;4226244;28;20259;-82
2021/12/16 06:31:40;;;;;;;4.38;3.97;;;19.40;99.90;;;;;;4226586;28;20233;-81
2021/12/16 06:33:43;;;;;;;5.18;4.68;;;19.50;99.90;;;;;;4226249;28;20223;-82
2021/12/16 06:35:47;;;;;;;4.47;4.07;;;19.50;99.90;;;;;;4226967;28;20742;-82
2021/12/16 06:37:50;;;;;;;5.13;4.28;;;19.50;99.90;;;;;;4226589;28;20206;-82
2021/12/16 06:39:52;;;;;;;4.35;3.95;;;19.50;99.90;;;;;;4225129;28;20275;-82
2021/12/16 06:41:56;;;;;;;4.88;4.18;;;19.50;99.90;;;;;;4225905;28;20202;-82
2021/12/16 06:44:01;;;;;;;4.95;4.10;;;19.50;99.90;;;;;;4227228;28;20652;-82
2021/12/16 06:46:07;;;;;;;5.93;4.25;;;19.50;99.90;;;;;;4227441;28;20707;-82
2021/12/16 06:48:14;;;;;;;4.05;3.63;;;19.50;99.90;;;;;;4228546;28;20252;-82
2021/12/16 06:50:27;;;;;;;4.68;4.20;;;19.60;99.90;;;;;;4228111;28;20214;-82
2021/12/16 06:52:36;;;;;;;4.93;3.92;;;19.60;99.90;;;;;;4228518;28;21613;-82
2021/12/16 06:54:52;;;;;;;6.53;4.30;;;19.60;99.90;;;;;;4227022;28;20610;-82
2021/12/16 06:57:06;;;;;;;4.57;4.03;;;19.60;99.90;;;;;;4228659;28;20271;-82
2021/12/16 06:59:19;;;;;;;4.93;4.15;;;19.60;99.90;;;;;;4231347;28;20206;-82
2021/12/16 07:01:36;;;;;;;4.78;4.03;;;19.60;99.90;;;;;;4232317;28;20263;-82
2021/12/16 07:03:48;;;;;;;5.10;4.25;;;19.60;99.90;;;;;;4232343;28;20255;-82
2021/12/16 07:05:54;;;;;;;4.32;3.63;;;19.60;99.90;;;;;;4232328;28;20194;-82
2021/12/16 07:07:57;;;;;;;4.45;4.05;;;19.70;99.90;;;;;;4232484;28;20302;-82
2021/12/16 07:10:00;;;;;;;5.05;4.10;;;19.70;99.90;;;;;;4232128;28;20210;-82
2021/12/16 07:12:05;;;;;;;4.40;4.00;;;19.70;99.90;;;;;;4231859;28;20217;-82
2021/12/16 07:14:12;;;;;;;4.93;4.20;;;19.70;99.90;;;;;;4231775;28;20217;-83
2021/12/16 07:16:15;;;;;;;5.03;4.03;;;19.70;99.90;;;;;;4231960;28;20226;-82
2021/12/16 07:18:17;;;;;;;5.07;4.30;;;19.70;99.90;;;;;;4232476;28;20259;-82
2021/12/16 07:20:24;;;;;;;4.40;4.00;;;19.70;99.90;;;;;;4232174;28;20254;-82
2021/12/16 07:22:27;;;;;;;4.90;3.83;;;19.70;99.90;;;;;;4231830;28;20209;-82
2021/12/16 07:24:30;;;;;;;4.55;4.15;;;19.70;99.90;;;;;;4231917;28;20730;-82
2021/12/16 07:26:32;;;;;;;4.28;3.88;;;19.70;99.90;;;;;;4231913;28;20700;-82
2021/12/16 07:28:36;;;;;;;4.93;4.32;;;19.70;99.90;;;;;;4231181;28;20210;-82
2021/12/16 07:30:40;;;;;;;4.82;4.13;;;19.70;99.90;;;;;;4217008;28;20238;-82
2021/12/16 07:32:43;;;;;;;4.20;3.72;;;19.70;99.90;;;;;;4197929;28;20245;-82
2021/12/16 07:34:45;;;;;;;5.25;3.85;;;19.70;99.90;;;;;;4202169;28;20222;-82
2021/12/16 07:36:48;;;;;;;5.55;3.60;;;19.80;99.90;;;;;;4198030;28;20239;-82
2021/12/16 07:38:51;;;;;;;4.35;3.95;;;19.80;99.90;;;;;;4195998;28;20695;-82
2021/12/16 07:40:54;;;;;;;4.28;3.67;;;19.80;99.90;;;;;;4197186;28;20223;-81
2021/12/16 07:43:11;;;;;;;3.90;3.60;;;19.80;99.90;;;;;;4212392;28;20244;-82
2021/12/16 07:45:18;;;;;;;4.95;3.60;;;19.80;99.90;;;;;;4203984;28;20210;-82
2021/12/16 07:47:20;;;;;;;4.15;3.80;;;19.80;99.90;;;;;;4201620;28;20236;-82
2021/12/16 07:49:25;;;;;;;3.85;3.50;;;19.80;99.90;;;;;;4201680;28;20272;-82
2021/12/16 07:51:27;;;;;;;4.78;3.50;;;19.80;99.90;;;;;;4203792;28;20619;-82
2021/12/16 07:53:29;;;;;;;4.72;4.20;;;19.80;99.90;;;;;;4196572;28;20219;-81
2021/12/16 07:55:32;;;;;;;3.95;3.50;;;19.80;99.90;;;;;;4209859;28;20632;-82
2021/12/16 07:57:34;;;;;;;4.65;4.10;;;19.80;99.90;;;;;;4214044;28;20243;-81
2021/12/16 07:59:37;;;;;;;4.28;3.50;;;19.90;99.90;;;;;;4213538;28;20210;-82
2021/12/16 08:01:44;;;;;;;4.28;3.88;;;19.90;99.90;;;;;;4190910;28;20211;-82
2021/12/16 08:03:46;;;;;;;4.43;4.03;;;19.90;99.90;;;;;;4200946;28;20215;-83
2021/12/16 08:05:54;;;;;;;7.85;4.93;;;19.90;99.90;;;;;;4187034;28;20223;-80
2021/12/16 08:07:56;;;;;;;6.07;4.10;;;19.80;99.90;;;;;;4188126;28;21091;-78
2021/12/16 08:09:59;;;;;;;6.75;4.10;;;19.90;99.90;;;;;;4197645;28;20268;-84
2021/12/16 08:12:02;;;;;;;6.05;4.20;;;19.90;99.90;;;;;;4190889;28;20220;-79
2021/12/16 08:14:05;;;;;;;4.78;4.10;;;19.70;99.90;;;;;;4192405;28;20215;-78
2021/12/16 08:16:09;;;;;;;4.60;4.18;;;19.80;99.90;;;;;;4187001;28;20285;-80
2021/12/16 08:18:13;;;;;;;6.22;4.30;;;19.80;99.90;;;;;;4192494;28;20211;-81
2021/12/16 08:20:18;;;;;;;6.10;4.40;;;19.90;99.90;;;;;;4196042;28;20250;-78
2021/12/16 08:22:20;;;;;;;7.78;4.32;;;20.00;99.90;;;;;;4194162;28;20269;-77
2021/12/16 08:24:23;;;;;;;5.85;3.58;;;19.90;99.90;;;;;;4191794;28;20219;-79
2021/12/16 08:26:26;;;;;;;5.18;4.20;;;20.00;99.90;;;;;;4192895;28;20215;-79
2021/12/16 08:28:28;;;;;;;5.22;4.30;;;20.00;99.90;;;;;;4192162;28;20254;-79
2021/12/16 08:30:33;;;;;;;7.40;4.00;;;20.10;99.90;;;;;;4199869;28;20235;-79
2021/12/16 08:32:36;;;;;;;4.72;3.83;;;20.10;99.90;;;;;;4207632;28;20636;-79
2021/12/16 08:34:42;;;;;;;4.95;3.78;;;20.20;99.90;;;;;;4205494;28;20206;-78
2021/12/16 08:36:45;;;;;;;5.35;3.83;;;20.20;99.90;;;;;;4207520;28;20233;-78
2021/12/16 08:38:47;;;;;;;4.65;4.00;;;20.20;99.90;;;;;;4226236;28;20263;-78
2021/12/16 08:40:52;;;;;;;8.35;4.13;;;20.20;99.90;;;;;;4226753;27;20217;-76
2021/12/16 08:42:55;;;;;;;4.97;4.00;;;20.20;99.90;;;;;;4219628;28;20612;-77
2021/12/16 08:44:57;;;;;;;4.80;3.50;;;20.20;99.90;;;;;;4224223;28;20290;-78
2021/12/16 08:47:03;;;;;;;7.10;4.20;;;20.20;99.90;;;;;;4222789;28;20270;-77
2021/12/16 08:49:07;;;;;;;4.65;3.90;;;20.30;99.90;;;;;;4222150;27;20239;-76
2021/12/16 08:51:12;;;;;;;4.60;3.40;;;20.30;99.90;;;;;;4220533;27;20283;-77
2021/12/16 08:53:15;;;;;;;4.95;4.10;;;20.40;99.90;;;;;;4219566;27;20670;-76
2021/12/16 08:55:20;;;;;;;6.72;4.32;;;20.40;99.90;;;;;;4222512;28;20835;-75
2021/12/16 08:57:22;;;;;;;5.53;4.07;;;20.40;99.90;;;;;;4222479;28;20634;-77
2021/12/16 08:59:25;;;;;;;6.03;4.15;;;20.40;99.90;;;;;;4222232;28;20214;-75
2021/12/16 09:01:31;;;;;;;6.80;3.97;;;20.40;99.90;;;;;;4215676;28;20610;-76
2021/12/16 09:03:34;;;;;;;4.15;3.75;;;20.50;99.90;;;;;;4214804;27;20262;-75
2021/12/16 09:05:38;;;;;;;4.50;3.92;;;20.50;99.90;;;;;;4213961;28;20214;-76
2021/12/16 09:07:45;;;;;;;4.53;3.80;;;20.50;99.90;;;;;;4224152;28;20214;-77
2021/12/16 09:09:47;;;;;;;4.80;3.80;;;20.50;99.90;;;;;;4224258;28;20217;-77
2021/12/16 09:12:03;;;;;;;6.68;3.67;;;20.60;99.90;;;;;;4224861;28;20276;-76
2021/12/16 09:14:06;;;;;;;5.22;3.85;;;20.50;99.90;;;;;;4218569;28;20206;-77
2021/12/16 09:16:13;;;;;;;5.90;4.10;;;20.60;99.90;;;;;;4224542;28;20256;-76
2021/12/16 09:18:18;;;;;;;8.00;4.10;;;20.60;99.90;;;;;;4225277;28;20243;-75
2021/12/16 09:20:21;;;;;;;6.22;3.85;;;20.60;99.90;;;;;;4220262;28;20239;-76
2021/12/16 09:22:26;;;;;;;4.72;3.72;;;20.60;99.90;;;;;;4223067;28;20214;-76
2021/12/16 09:24:30;;;;;;;4.85;3.63;;;20.60;99.90;;;;;;4220633;28;20210;-75
2021/12/16 09:26:32;;;;;;;6.15;5.20;;;20.60;99.90;;;;;;4220398;28;20210;-74
2021/12/16 09:28:35;;;;;;;9.30;4.40;;;20.70;99.90;;;;;;4219830;28;20223;-75
2021/12/16 09:30:38;;;;;;;7.18;4.00;;;20.60;99.90;;;;;;4220769;28;20229;-74
2021/12/16 09:32:41;;;;;;;7.88;4.72;;;20.60;99.90;;;;;;4221815;28;20606;-76
2021/12/16 09:34:45;;;;;;;7.65;4.30;;;20.60;99.90;;;;;;4223213;28;20213;-77
2021/12/16 09:36:48;;;;;;;6.78;4.32;;;20.70;99.90;;;;;;4221541;28;20247;-73
2021/12/16 09:38:51;;;;;;;6.95;3.88;;;20.70;99.90;;;;;;4220807;28;20265;-75
2021/12/16 09:40:57;;;;;;;4.20;3.40;;;20.80;99.90;;;;;;4220378;28;20258;-74
2021/12/16 09:42:59;;;;;;;4.70;3.95;;;20.90;99.90;;;;;;4222985;28;20278;-74
2021/12/16 09:45:02;;;;;;;15.07;5.00;;;20.90;99.90;;;;;;4217236;28;20219;-73
2021/12/16 09:47:07;;;;;;;12.00;5.20;;;21.00;99.90;;;;;;4222238;28;20570;-75
2021/12/16 09:49:09;;;;;;;7.43;4.63;;;21.10;99.90;;;;;;4218090;28;20259;-73
2021/12/16 09:51:21;;;;;;;9.35;4.10;;;21.10;99.90;;;;;;4216500;28;20213;-75
2021/12/16 09:53:24;;;;;;;7.13;4.50;;;21.30;99.90;;;;;;4221750;28;20214;-76
2021/12/16 09:55:27;;;;;;;9.15;3.90;;;21.30;99.90;;;;;;4220970;28;20688;-75
2021/12/16 09:57:31;;;;;;;8.65;3.97;;;21.40;99.90;;;;;;4219443;28;20298;-76
2021/12/16 09:59:35;;;;;;;5.35;3.40;;;21.50;99.90;;;;;;4223552;28;20258;-77
2021/12/16 10:01:38;;;;;;;5.15;3.90;;;21.50;99.90;;;;;;4218687;28;20209;-74
2021/12/16 10:03:43;;;;;;;4.18;3.78;;;21.50;99.90;;;;;;4220109;28;20895;-73
2021/12/16 10:05:46;;;;;;;7.13;4.05;;;21.60;99.90;;;;;;4217101;28;20266;-76
2021/12/16 10:07:48;;;;;;;9.43;4.35;;;21.70;99.90;;;;;;4216387;28;20215;-77
2021/12/16 10:09:54;;;;;;;5.75;3.72;;;21.70;99.90;;;;;;4217065;28;20330;-76
2021/12/16 10:12:01;;;;;;;6.97;3.75;;;21.70;99.90;;;;;;4219791;28;20210;-74
2021/12/16 10:14:19;;;;;;;6.20;4.63;;;21.70;99.90;;;;;;4220909;28;20210;-75
2021/12/16 10:18:41;;;;;;;7.57;4.68;;;21.80;99.90;;;;;;4223255;28;20654;-75
2021/12/16 10:20:46;;;;;;;5.40;4.00;;;21.80;99.90;;;;;;4221159;28;20263;-75
2021/12/16 10:22:50;;;;;;;8.55;4.30;;;21.90;99.90;;;;;;4220964;27;20247;-77
2021/12/16 10:24:58;;;;;;;6.15;3.95;;;22.00;99.90;;;;;;4224747;28;20625;-75
2021/12/16 10:27:10;;;;;;;6.10;4.30;;;22.00;99.90;;;;;;4219251;28;20250;-77
2021/12/16 10:29:13;;;;;;;6.40;4.47;;;22.10;99.90;;;;;;4223099;27;20206;-78
2021/12/16 10:31:22;;;;;;;6.57;4.70;;;22.10;99.90;;;;;;4222250;28;20233;-74
2021/12/16 10:33:28;;;;;;;7.25;4.60;;;22.10;99.90;;;;;;4224607;28;20262;-76
2021/12/16 10:35:33;;;;;;;7.15;4.18;;;22.10;99.90;;;;;;4226426;27;21138;-77
2021/12/16 10:37:38;;;;;;;8.45;4.45;;;22.20;99.90;;;;;;4230257;27;20286;-74
2021/12/16 10:39:40;;;;;;;8.18;3.97;;;22.20;99.90;;;;;;4219249;27;20202;-74
2021/12/16 10:41:46;;;;;;;7.55;3.80;;;22.20;99.90;;;;;;4222562;28;20306;-79
2021/12/16 10:43:51;;;;;;;7.55;4.85;;;22.20;99.90;;;;;;4227043;27;20218;-78
2021/12/16 10:45:59;;;;;;;7.45;5.13;;;22.30;99.90;;;;;;4224415;28;20619;-78
2021/12/16 10:48:11;;;;;;;6.05;4.32;;;22.30;99.90;;;;;;4225656;28;21245;-78
2021/12/16 10:50:15;;;;;;;8.95;4.35;;;22.20;99.90;;;;;;4227068;28;21579;-75
2021/12/16 10:52:20;;;;;;;6.13;4.78;;;22.30;99.90;;;;;;4220886;27;20602;-76
2021/12/16 10:54:24;;;;;;;6.05;4.35;;;22.30;99.90;;;;;;4222493;28;20222;-75
2021/12/16 10:56:31;;;;;;;5.53;4.70;;;22.30;99.90;;;;;;4226098;27;20214;-75
2021/12/16 10:58:51;;;;;;;4.55;4.15;;;22.40;99.90;;;;;;4227171;27;20234;-75
2021/12/16 11:00:55;;;;;;;5.22;4.53;;;22.40;99.90;;;;;;4227100;27;20267;-76
2021/12/16 11:02:58;;;;;;;5.38;4.35;;;22.40;99.90;;;;;;4225117;28;20217;-74
2021/12/16 11:05:02;;;;;;;4.95;3.97;;;22.40;99.90;;;;;;4222537;28;20877;-75
2021/12/16 11:07:13;;;;;;;4.80;4.35;;;22.50;99.90;;;;;;4224883;27;20222;-76
2021/12/16 11:09:39;;;;;;;5.35;4.20;;;22.50;99.90;;;;;;4225973;28;20221;-75
2021/12/16 11:11:41;;;;;;;6.90;5.10;;;22.50;99.90;;;;;;4219999;28;20838;-79
2021/12/16 11:13:44;;;;;;;8.27;5.05;;;22.60;99.90;;;;;;4229127;27;20263;-77
2021/12/16 11:15:53;;;;;;;7.88;4.57;;;22.50;99.90;;;;;;4227887;28;20715;-79
2021/12/16 11:18:02;;;;;;;5.95;4.50;;;22.60;99.90;;;;;;4225369;28;20638;-79
2021/12/16 11:20:11;;;;;;;4.72;3.80;;;22.70;99.90;;;;;;4225333;27;20673;-77
2021/12/16 11:22:16;;;;;;;8.35;4.88;;;22.70;99.90;;;;;;4229283;27;20570;-78
2021/12/16 11:24:25;;;;;;;7.20;4.88;;;22.70;99.90;;;;;;4225095;28;20213;-77
2021/12/16 11:26:33;;;;;;;9.85;5.75;;;22.80;99.90;;;;;;4224737;27;20214;-76
2021/12/16 11:28:37;;;;;;;9.18;4.75;;;22.80;99.90;;;;;;4224608;28;21647;-77
2021/12/16 11:30:45;;;;;;;9.05;4.47;;;22.70;99.90;;;;;;4221144;28;20230;-78
2021/12/16 11:32:50;;;;;;;14.48;4.88;;;22.80;99.90;;;;;;4225235;28;20217;-75
2021/12/16 11:34:54;;;;;;;6.72;4.82;;;22.90;99.90;;;;;;4218194;28;20655;-74
2021/12/16 11:36:57;;;;;;;8.85;5.35;;;22.80;99.90;;;;;;4224543;28;20294;-76
2021/12/16 11:39:04;;;;;;;8.27;4.53;;;22.80;99.90;;;;;;4220882;28;20598;-78
2021/12/16 11:41:13;;;;;;;5.88;4.38;;;22.80;99.90;;;;;;4218366;28;20237;-78
2021/12/16 11:43:16;;;;;;;6.68;4.93;;;22.80;99.90;;;;;;4223368;28;20217;-78
2021/12/16 11:45:32;;;;;;;8.30;5.85;;;22.80;99.90;;;;;;4223987;28;20218;-77
2021/12/16 11:47:35;;;;;;;9.48;5.00;;;22.80;99.90;;;;;;4223243;28;20255;-78
2021/12/16 11:49:39;;;;;;;9.43;5.28;;;22.80;99.90;;;;;;4227182;28;20615;-78
2021/12/16 11:51:46;;;;;;;10.10;5.18;;;22.80;99.90;;;;;;4224848;28;20214;-77
2021/12/16 11:53:51;;;;;;;7.30;5.10;;;22.80;99.90;;;;;;4227044;28;20255;-79
2021/12/16 11:55:54;;;;;;;8.18;4.88;;;22.80;99.90;;;;;;4222778;28;20263;-78
2021/12/16 11:58:01;;;;;;;11.18;4.82;;;22.80;99.90;;;;;;4218962;27;20238;-79
2021/12/16 12:00:10;;;;;;;7.10;5.03;;;22.80;99.90;;;;;;4223460;27;20210;-79
2021/12/16 12:02:26;;;;;;;10.80;4.97;;;22.80;99.90;;;;;;4222350;28;20267;-78
2021/12/16 12:04:33;;;;;;;9.55;5.25;;;22.70;99.90;;;;;;4221680;28;20255;-80
2021/12/16 12:06:38;;;;;;;13.65;9.35;;;22.80;99.90;;;;;;4223532;28;20678;-77
2021/12/16 12:08:46;;;;;;;12.18;9.63;;;22.70;99.90;;;;;;4221978;28;20205;-77
2021/12/16 12:10:59;;;;;;;12.48;9.05;;;22.60;99.90;;;;;;4220237;28;20611;-78
2021/12/16 12:13:03;;;;;;;8.18;6.32;;;22.60;99.90;;;;;;4222443;28;20246;-78
2021/12/16 12:15:07;;;;;;;9.95;5.80;;;22.60;99.90;;;;;;4223679;28;20249;-78
2021/12/16 12:17:13;;;;;;;9.93;5.10;;;22.60;99.90;;;;;;4225660;28;20274;-78
2021/12/16 12:19:17;;;;;;;10.25;5.65;;;22.60;99.90;;;;;;4224602;28;20230;-78
2021/12/16 12:21:28;;;;;;;6.85;4.80;;;22.60;99.90;;;;;;4225850;28;21738;-77
2021/12/16 12:23:30;;;;;;;7.60;4.85;;;22.60;99.90;;;;;;4224261;28;20559;-78
2021/12/16 12:25:34;;;;;;;6.63;4.97;;;22.60;99.90;;;;;;4226641;28;20255;-78
2021/12/16 12:27:36;;;;;;;7.97;4.90;;;22.60;99.90;;;;;;4224070;28;20221;-77
2021/12/16 12:29:42;;;;;;;6.32;4.82;;;22.60;99.90;;;;;;4221671;28;20210;-78
2021/12/16 12:31:48;;;;;;;6.38;4.50;;;22.60;99.90;;;;;;4224456;28;20237;-78
2021/12/16 12:33:50;;;;;;;6.80;4.43;;;22.60;99.90;;;;;;4224647;28;20217;-77
2021/12/16 12:35:53;;;;;;;7.13;5.03;;;22.70;99.90;;;;;;4226352;28;20715;-78
2021/12/16 12:37:59;;;;;;;7.32;4.60;;;22.60;99.90;;;;;;4225573;28;20308;-78
2021/12/16 12:40:07;;;;;;;6.85;4.85;;;22.60;99.90;;;;;;4226133;28;20236;-78